To NAV CANADA Home Page Login to a new session Search on AWWS site Feedback and Comments Disclaimer Vers la page française équivalente Tips FAQ What's new on the site To the Forecasts and Observations / NOTAM section To "File a Flight Plan" website Publications and other links Update of the User's profile FIC Telephone Numbers My Weather Data Folder Route Weather Data Regional Weather Data Local Weather Data To the Forecasts and Observations / NOTAM section
Request Generated 04/16/2014 at 18:56:42 UTC . Weather information available at that time is displayed.

METAR/TAF

SAINT JOHN/NB    

METAR CYSJ 161800Z 31016G24KT 15SM BKN023 OVC260 01/M06 A3014 RMK
SC6CI2 PRESRR SLP209=
METAR CYSJ 161700Z 32016G25KT 15SM BKN022 OVC260 02/M04 A3008 RMK
SC5CI3 SLP189=
METAR CYSJ 161600Z 31018G27KT 15SM FEW010 BKN018 OVC062 M00/M04 A3003
RMK SF1SC4SC3 PRESRR SLP174=

TAF CYSJ 161738Z 1618/1706 32015G25KT P6SM SCT020 TEMPO 1618/1621
BKN020
FM162100 33012G22KT P6SM FEW030
BECMG 1701/1703 34007KT
RMK NXT FCST BY 170000Z=
Your time UTC time
Weather data provided by Environment Canada and NAV CANADA